createdAt,value
2018-04-24T00:01:18.279Z,15.32
2018-04-24T00:03:44.597Z,17.10
2018-04-24T00:06:10.906Z,18.17
2018-04-24T00:08:37.211Z,18.25
2018-04-24T00:11:04.445Z,20.45
2018-04-24T00:13:31.460Z,18.60
2018-04-24T00:15:58.490Z,20.23
2018-04-24T00:18:27.130Z,13.63
2018-04-24T00:20:53.307Z,16.57
2018-04-24T00:23:19.452Z,12.50
2018-04-24T00:25:45.865Z,11.88
2018-04-24T00:28:12.216Z,11.80
2018-04-24T00:30:38.868Z,11.33
2018-04-24T00:33:05.909Z,11.68
2018-04-24T00:35:32.035Z,12.65
2018-04-24T00:37:58.143Z,11.32
2018-04-24T00:40:24.257Z,15.07
2018-04-24T00:42:50.569Z,11.45
2018-04-24T00:45:16.882Z,13.18
2018-04-24T00:47:43.200Z,10.30
2018-04-24T00:50:09.317Z,11.33
2018-04-24T00:52:35.614Z,9.77
2018-04-24T00:55:01.942Z,9.95
2018-04-24T00:57:28.029Z,8.27
2018-04-24T00:59:54.330Z,8.93
2018-04-24T01:02:21.647Z,11.88
2018-04-24T01:04:47.736Z,7.63
2018-04-24T01:07:14.063Z,6.97
2018-04-24T01:09:40.342Z,6.07
2018-04-24T01:12:06.673Z,9.18
2018-04-24T01:14:32.983Z,11.97
2018-04-24T01:16:59.324Z,7.57
2018-04-24T01:19:25.643Z,7.20
2018-04-24T01:21:51.982Z,5.60
2018-04-24T01:24:19.088Z,5.72
2018-04-24T01:26:46.167Z,9.55
2018-04-24T01:29:12.486Z,8.43
2018-04-24T01:31:38.784Z,7.95
2018-04-24T01:34:05.096Z,10.82
2018-04-24T01:36:32.147Z,6.50
2018-04-24T01:38:59.004Z,6.87
2018-04-24T01:41:25.624Z,5.50
2018-04-24T01:43:51.754Z,5.10
2018-04-24T01:46:18.075Z,6.57
2018-04-24T01:48:44.714Z,6.68
2018-04-24T01:51:11.024Z,4.68
2018-04-24T01:53:37.362Z,10.30
2018-04-24T01:56:03.701Z,3.53
2018-04-24T01:58:30.002Z,4.33
2018-04-24T02:00:56.294Z,5.03
2018-04-24T02:03:22.617Z,7.00
2018-04-24T02:05:48.972Z,5.30
2018-04-24T02:08:16.145Z,6.00
2018-04-24T02:10:42.250Z,4.32
2018-04-24T02:13:08.353Z,5.50
2018-04-24T02:15:34.535Z,4.18
2018-04-24T02:18:00.850Z,5.68
2018-04-24T02:20:27.138Z,2.80
2018-04-24T02:22:54.184Z,8.02
2018-04-24T02:25:21.022Z,6.90
2018-04-24T02:27:47.319Z,5.40
2018-04-24T02:30:13.646Z,4.37
2018-04-24T02:32:40.509Z,3.47
2018-04-24T02:35:07.352Z,7.18
2018-04-24T02:37:34.228Z,4.00
2018-04-24T02:40:00.337Z,5.57
2018-04-24T02:42:26.455Z,4.32
2018-04-24T02:44:52.579Z,4.53
2018-04-24T02:47:18.695Z,4.87
2018-04-24T02:49:44.851Z,6.87
2018-04-24T02:52:10.957Z,5.10
2018-04-24T02:54:37.274Z,4.05
2018-04-24T02:57:03.638Z,5.80
2018-04-24T02:59:29.964Z,6.35
2018-04-24T03:01:56.278Z,7.68
2018-04-24T03:04:22.605Z,3.97
2018-04-24T03:06:49.727Z,4.85
2018-04-24T03:09:16.049Z,4.18
2018-04-24T03:11:42.526Z,4.70
2018-04-24T03:14:08.740Z,3.92
2018-04-24T03:16:35.059Z,3.15
2018-04-24T03:19:01.355Z,9.95
2018-04-24T03:21:27.663Z,3.42
2018-04-24T03:23:53.943Z,4.10
2018-04-24T03:26:20.547Z,10.23
2018-04-24T03:28:46.875Z,3.65
2018-04-24T03:31:13.155Z,5.40
2018-04-24T03:33:39.465Z,4.72
2018-04-24T03:36:05.799Z,5.43
2018-04-24T03:38:32.116Z,5.03
2018-04-24T03:40:58.417Z,3.90
2018-04-24T03:43:24.707Z,6.78
2018-04-24T03:45:51.027Z,4.05
2018-04-24T03:48:18.507Z,5.85
2018-04-24T03:50:44.828Z,5.45
2018-04-24T03:53:11.884Z,7.35
2018-04-24T03:55:38.242Z,5.95
2018-04-24T03:58:04.586Z,6.03
2018-04-24T04:00:31.743Z,5.80
2018-04-24T04:02:58.782Z,4.70
2018-04-24T04:05:24.886Z,10.15
2018-04-24T04:07:51.016Z,6.57
2018-04-24T04:10:17.119Z,6.10
2018-04-24T04:12:43.980Z,5.85
2018-04-24T04:15:10.865Z,8.30
2018-04-24T04:17:49.391Z,6.35
2018-04-24T04:20:27.866Z,13.20
2018-04-24T04:23:06.179Z,4.28
2018-04-24T04:25:32.486Z,5.20
2018-04-24T04:27:58.770Z,4.60
2018-04-24T04:30:25.873Z,6.53
2018-04-24T04:32:52.595Z,8.63
2018-04-24T04:35:19.575Z,7.10
2018-04-24T04:37:46.623Z,6.10
2018-04-24T04:40:12.896Z,4.97
2018-04-24T04:42:39.182Z,7.85
2018-04-24T04:45:05.465Z,7.75
2018-04-24T04:47:32.515Z,7.57
2018-04-24T04:49:58.609Z,5.80
2018-04-24T04:52:24.722Z,7.93
2018-04-24T04:54:51.784Z,8.48
2018-04-24T04:57:17.895Z,6.10
2018-04-24T04:59:44.757Z,6.45
2018-04-24T05:02:11.582Z,5.07
2018-04-24T05:04:37.668Z,6.62
2018-04-24T05:07:04.696Z,5.82
2018-04-24T05:09:31.534Z,8.90
2018-04-24T05:11:57.700Z,6.72
2018-04-24T05:14:23.746Z,6.85
2018-04-24T05:16:50.594Z,9.57
2018-04-24T05:19:17.451Z,7.60
2018-04-24T05:21:44.328Z,9.73
2018-04-24T05:24:10.437Z,9.02
2018-04-24T05:26:36.563Z,5.53
2018-04-24T05:29:02.644Z,11.40
2018-04-24T05:31:28.751Z,7.82
2018-04-24T05:33:55.587Z,6.07
2018-04-24T05:36:21.679Z,6.10
2018-04-24T05:38:47.786Z,6.15
2018-04-24T05:41:14.662Z,9.75
2018-04-24T05:43:41.477Z,7.20
2018-04-24T05:46:07.561Z,4.82
2018-04-24T05:48:33.657Z,9.88
2018-04-24T05:50:59.759Z,6.43
2018-04-24T05:53:25.868Z,6.05
2018-04-24T05:55:51.991Z,8.52
2018-04-24T05:58:21.503Z,6.78
2018-04-24T06:00:47.769Z,7.43
2018-04-24T06:03:13.868Z,5.20
2018-04-24T06:05:39.956Z,5.68
2018-04-24T06:08:06.048Z,6.75
2018-04-24T06:10:32.144Z,9.20
2018-04-24T06:12:58.256Z,6.80
2018-04-24T06:15:24.356Z,5.35
2018-04-24T06:17:50.482Z,5.57
2018-04-24T06:20:16.569Z,4.70
2018-04-24T06:22:42.695Z,8.25
2018-04-24T06:25:09.919Z,7.07
2018-04-24T06:27:36.014Z,5.12
2018-04-24T06:30:02.117Z,6.30
2018-04-24T06:32:28.217Z,9.23
2018-04-24T06:34:54.322Z,5.60
2018-04-24T06:37:20.423Z,4.75
2018-04-24T06:39:46.685Z,9.20
2018-04-24T06:42:13.570Z,3.83
2018-04-24T06:44:40.384Z,5.62
2018-04-24T06:47:06.475Z,8.80
2018-04-24T06:49:32.570Z,5.95
2018-04-24T06:51:59.434Z,6.30
2018-04-24T06:54:25.538Z,4.60
2018-04-24T06:56:51.750Z,6.07
2018-04-24T06:59:17.838Z,6.40
2018-04-24T07:01:45.699Z,5.12
2018-04-24T07:04:11.907Z,5.30
2018-04-24T07:06:37.999Z,5.28
2018-04-24T07:09:04.899Z,6.55
2018-04-24T07:11:31.035Z,5.28
2018-04-24T07:13:58.314Z,5.15
2018-04-24T07:16:24.406Z,5.07
2018-04-24T07:18:51.260Z,6.22
2018-04-24T07:21:18.108Z,5.75
2018-04-24T07:23:44.250Z,6.00
2018-04-24T07:26:10.402Z,5.93
2018-04-24T07:28:38.212Z,4.87
2018-04-24T07:31:04.540Z,6.25
2018-04-24T07:33:30.865Z,8.03
2018-04-24T07:35:57.436Z,6.13
2018-04-24T07:38:24.513Z,6.25
2018-04-24T07:40:50.888Z,9.80
2018-04-24T07:43:17.231Z,5.53
2018-04-24T07:45:43.546Z,3.87
2018-04-24T07:48:09.891Z,6.57
2018-04-24T07:50:36.888Z,5.43
2018-04-24T07:53:03.256Z,9.57
2018-04-24T07:55:31.032Z,6.85
2018-04-24T07:57:57.295Z,4.97
2018-04-24T08:00:24.147Z,5.00
2018-04-24T08:02:50.993Z,4.80
2018-04-24T08:05:17.147Z,5.30
2018-04-24T08:07:44.004Z,8.77
2018-04-24T08:10:22.927Z,6.87
2018-04-24T08:12:49.062Z,7.20
2018-04-24T08:15:15.154Z,4.70
2018-04-24T08:17:41.253Z,6.67
2018-04-24T08:20:07.365Z,5.03
2018-04-24T08:22:40.893Z,4.65
2018-04-24T08:25:07.004Z,6.75
2018-04-24T08:27:33.872Z,6.93
2018-04-24T08:30:00.729Z,5.80
2018-04-24T08:32:27.556Z,8.00
2018-04-24T08:34:53.652Z,5.33
2018-04-24T08:37:24.978Z,7.30
2018-04-24T08:39:51.111Z,7.03
2018-04-24T08:42:17.204Z,6.00
2018-04-24T08:44:43.337Z,7.30
2018-04-24T08:47:09.452Z,8.80
2018-04-24T08:49:35.547Z,6.77
2018-04-24T08:52:02.399Z,8.87
2018-04-24T08:54:32.273Z,7.10
2018-04-24T08:56:59.120Z,6.63
2018-04-24T08:59:25.261Z,7.40
2018-04-24T09:01:51.436Z,6.30
2018-04-24T09:04:18.366Z,6.20
2018-04-24T09:06:44.465Z,7.77
2018-04-24T09:09:11.307Z,10.07
2018-04-24T09:11:39.023Z,6.43
2018-04-24T09:14:05.182Z,7.20
2018-04-24T09:16:31.226Z,7.27
2018-04-24T09:18:57.322Z,7.73
2018-04-24T09:21:23.447Z,8.90
2018-04-24T09:23:49.763Z,6.07
2018-04-24T09:26:16.611Z,10.20
2018-04-24T09:28:45.222Z,6.97
2018-04-24T09:31:11.331Z,9.30
2018-04-24T09:33:37.541Z,8.17
2018-04-24T09:36:03.595Z,10.50
2018-04-24T09:38:30.435Z,10.47
2018-04-24T09:40:56.537Z,11.90
2018-04-24T09:43:22.647Z,8.90
2018-04-24T09:45:51.164Z,9.17
2018-04-24T09:48:17.353Z,10.83
2018-04-24T09:50:43.505Z,9.90
2018-04-24T09:53:09.640Z,9.60
2018-04-24T09:55:35.735Z,10.20
2018-04-24T09:58:01.843Z,10.13
2018-04-24T10:00:37.353Z,10.87
2018-04-24T10:03:06.349Z,9.90
2018-04-24T10:05:32.470Z,9.50
2018-04-24T10:07:59.311Z,10.20
2018-04-24T10:10:25.412Z,11.17
2018-04-24T10:12:51.529Z,10.37
2018-04-24T10:15:18.359Z,11.63
2018-04-24T10:20:16.328Z,12.10
2018-04-24T10:22:42.458Z,12.10
2018-04-24T10:25:08.543Z,11.40
2018-04-24T10:27:34.629Z,11.93
2018-04-24T10:30:00.769Z,12.57
2018-04-24T10:32:26.855Z,13.33
2018-04-24T10:34:52.943Z,11.50
2018-04-24T10:37:24.223Z,10.93
2018-04-24T10:39:50.263Z,13.27
2018-04-24T10:42:16.384Z,12.80
2018-04-24T10:44:42.500Z,13.70
2018-04-24T10:47:09.534Z,14.70
2018-04-24T10:49:35.635Z,13.27
2018-04-24T10:52:01.749Z,14.00
2018-04-24T10:54:28.598Z,16.80
2018-04-24T10:56:59.359Z,15.87
2018-04-24T10:59:25.535Z,14.27
2018-04-24T11:01:52.315Z,13.70
2018-04-24T11:04:18.411Z,14.70
2018-04-24T11:06:44.571Z,15.37
2018-04-24T11:09:11.363Z,16.17
2018-04-24T11:11:37.454Z,18.43
2018-04-24T11:14:04.351Z,18.23
2018-04-24T11:16:35.619Z,20.50
2018-04-24T11:19:01.707Z,19.23
2018-04-24T11:21:27.911Z,18.57
2018-04-24T11:23:53.959Z,19.33
2018-04-24T11:26:20.160Z,18.90
2018-04-24T11:28:46.284Z,21.93
2018-04-24T11:31:12.407Z,18.60
2018-04-24T11:33:43.867Z,17.20
2018-04-24T11:36:09.993Z,18.83
2018-04-24T11:38:36.128Z,17.13
2018-04-24T11:41:02.242Z,16.87
2018-04-24T11:43:28.344Z,18.40
2018-04-24T11:45:54.682Z,15.63
2018-04-24T11:48:21.516Z,15.80
2018-04-24T11:50:47.993Z,17.23
2018-04-24T11:53:20.365Z,16.40
2018-04-24T11:55:46.519Z,22.07
2018-04-24T11:58:12.607Z,24.60
2018-04-24T12:00:38.691Z,21.93
2018-04-24T12:03:04.854Z,23.10
2018-04-24T12:05:31.694Z,24.40
2018-04-24T12:07:57.803Z,24.10
2018-04-24T12:10:23.931Z,20.37
2018-04-24T12:12:54.107Z,21.47
2018-04-24T12:15:20.210Z,20.20
2018-04-24T12:17:46.301Z,24.00
2018-04-24T12:20:12.478Z,24.43
2018-04-24T12:22:38.567Z,22.93
2018-04-24T12:25:04.707Z,24.17
2018-04-24T12:27:30.823Z,21.80
2018-04-24T12:29:57.008Z,24.03
2018-04-24T12:32:23.105Z,21.67
2018-04-24T12:34:50.475Z,22.53
2018-04-24T12:37:16.772Z,19.47
2018-04-24T12:39:43.066Z,18.87
2018-04-24T12:42:10.106Z,18.63
2018-04-24T12:44:37.049Z,19.80
2018-04-24T12:47:03.923Z,16.73
2018-04-24T12:49:35.027Z,17.47
2018-04-24T12:52:01.232Z,20.53
2018-04-24T12:54:27.423Z,18.13
2018-04-24T12:56:53.545Z,15.50
2018-04-24T12:59:19.656Z,15.73
2018-04-24T13:01:45.780Z,15.53
2018-04-24T13:04:11.886Z,16.50
2018-04-24T13:06:37.991Z,17.53
2018-04-24T13:09:05.939Z,14.37
2018-04-24T13:11:32.250Z,15.23
2018-04-24T13:13:58.576Z,13.50
2018-04-24T13:16:25.059Z,12.70
2018-04-24T13:18:51.386Z,14.83
2018-04-24T13:21:17.711Z,16.63
2018-04-24T13:23:44.084Z,15.07
2018-04-24T13:26:12.232Z,11.03
2018-04-24T13:28:39.293Z,12.80
2018-04-24T13:31:05.429Z,14.03
2018-04-24T13:33:31.777Z,12.80
2018-04-24T13:35:58.095Z,12.93
2018-04-24T13:38:25.200Z,13.13
2018-04-24T13:40:51.564Z,13.20
2018-04-24T13:43:21.311Z,15.13
2018-04-24T13:45:47.628Z,10.50
2018-04-24T13:48:14.724Z,13.53
2018-04-24T13:50:41.044Z,12.77
2018-04-24T13:53:07.915Z,9.77
2018-04-24T13:55:34.095Z,11.40
2018-04-24T13:58:05.874Z,10.07
2018-04-24T14:00:32.015Z,12.83
2018-04-24T14:02:58.972Z,14.03
2018-04-24T14:05:25.151Z,13.97
2018-04-24T14:07:52.015Z,9.13
2018-04-24T14:10:18.884Z,11.20
2018-04-24T14:12:46.018Z,12.23
2018-04-24T14:15:13.843Z,11.20
2018-04-24T14:17:39.965Z,10.83
2018-04-24T14:20:06.098Z,10.23
2018-04-24T14:22:32.196Z,10.87
2018-04-24T14:24:58.319Z,10.67
2018-04-24T14:27:24.480Z,11.30
2018-04-24T14:29:50.613Z,11.20
2018-04-24T14:32:16.731Z,11.60
2018-04-24T14:34:46.087Z,10.87
2018-04-24T14:37:12.932Z,13.00
2018-04-24T14:39:39.040Z,11.37
2018-04-24T14:42:05.163Z,11.00
2018-04-24T14:44:31.301Z,11.53
2018-04-24T14:46:57.436Z,11.27
2018-04-24T14:49:28.476Z,13.03
2018-04-24T14:51:54.992Z,14.93
2018-04-24T14:54:21.112Z,12.60
2018-04-24T14:56:47.221Z,14.23
2018-04-24T14:59:13.335Z,13.60
2018-04-24T15:01:39.515Z,16.40
2018-04-24T15:04:06.414Z,10.83
2018-04-24T15:06:40.891Z,13.77
2018-04-24T15:09:06.999Z,12.03
2018-04-24T15:11:33.143Z,12.33
2018-04-24T15:13:59.295Z,13.40
2018-04-24T15:16:25.455Z,14.33
2018-04-24T15:18:51.583Z,11.70
2018-04-24T15:21:17.713Z,12.00
2018-04-24T15:23:43.941Z,15.33
2018-04-24T15:26:10.216Z,14.70
2018-04-24T15:28:36.429Z,13.80
2018-04-24T15:31:02.645Z,18.13
2018-04-24T15:33:28.821Z,12.90
2018-04-24T15:35:54.961Z,17.47
2018-04-24T15:38:21.225Z,15.37
2018-04-24T15:40:47.414Z,17.50
2018-04-24T15:43:15.917Z,14.97
2018-04-24T15:45:42.228Z,13.33
2018-04-24T15:48:08.751Z,14.17
2018-04-24T15:50:35.448Z,17.93
2018-04-24T15:53:01.875Z,16.03
2018-04-24T15:55:28.453Z,14.93
2018-04-24T15:57:54.603Z,16.93
2018-04-24T16:00:20.908Z,14.17
2018-04-24T16:02:47.229Z,14.13
2018-04-24T16:05:18.027Z,16.03
2018-04-24T16:07:44.343Z,15.00
2018-04-24T16:10:10.646Z,14.87
2018-04-24T16:12:36.940Z,23.17
2018-04-24T16:15:03.314Z,15.27
2018-04-24T16:17:29.696Z,13.60
2018-04-24T16:19:56.027Z,15.17
2018-04-24T16:22:26.521Z,15.43
2018-04-24T16:24:52.859Z,14.90
2018-04-24T16:27:19.977Z,15.27
2018-04-24T16:29:46.281Z,14.43
2018-04-24T16:32:12.546Z,16.30
2018-04-24T16:34:38.854Z,15.07
2018-04-24T16:37:05.166Z,17.70
2018-04-24T16:39:32.663Z,15.00
2018-04-24T16:41:59.688Z,13.87
2018-04-24T16:44:26.766Z,14.97
2018-04-24T16:46:53.616Z,16.30
2018-04-24T16:49:19.792Z,14.00
2018-04-24T16:51:45.900Z,12.63
2018-04-24T16:54:17.028Z,13.83
2018-04-24T16:56:43.879Z,15.57
2018-04-24T16:59:10.730Z,14.50
2018-04-24T17:01:36.895Z,15.90
2018-04-24T17:04:03.753Z,15.53
2018-04-24T17:06:30.759Z,14.33
2018-04-24T17:08:56.876Z,12.57
2018-04-24T17:11:26.531Z,13.13
2018-04-24T17:13:53.381Z,13.30
2018-04-24T17:16:19.499Z,13.57
2018-04-24T17:18:45.601Z,13.87
2018-04-24T17:21:11.721Z,14.03
2018-04-24T17:23:37.861Z,15.60
2018-04-24T17:26:03.976Z,14.23
2018-04-24T17:28:36.022Z,13.30
2018-04-24T17:31:02.129Z,15.90
2018-04-24T17:33:28.345Z,12.63
2018-04-24T17:35:54.477Z,12.83
2018-04-24T17:38:21.322Z,16.13
2018-04-24T17:40:47.443Z,13.00
2018-04-24T17:43:13.536Z,12.93
2018-04-24T17:45:41.957Z,16.27
2018-04-24T17:48:08.079Z,14.57
2018-04-24T17:50:34.169Z,14.40
2018-04-24T17:53:00.346Z,11.93
2018-04-24T17:55:26.488Z,12.97
2018-04-24T17:57:52.582Z,12.20
2018-04-24T18:00:18.684Z,14.57
2018-04-24T18:02:48.558Z,14.07
2018-04-24T18:05:14.651Z,15.07
2018-04-24T18:07:40.742Z,12.33
2018-04-24T18:10:06.860Z,12.00
2018-04-24T18:12:33.723Z,13.00
2018-04-24T18:15:00.560Z,12.17
2018-04-24T18:17:26.679Z,11.73
2018-04-24T18:19:52.787Z,15.00
2018-04-24T18:22:20.889Z,12.77
2018-04-24T18:24:47.012Z,13.70
2018-04-24T18:27:13.171Z,12.33
2018-04-24T18:29:39.304Z,15.03
2018-04-24T18:32:05.474Z,14.20
2018-04-24T18:34:31.602Z,13.20
2018-04-24T18:36:57.740Z,13.07
2018-04-24T18:39:25.829Z,13.70
2018-04-24T18:41:53.652Z,13.07
2018-04-24T18:44:19.776Z,13.17
2018-04-24T18:46:45.935Z,12.93
2018-04-24T18:49:12.157Z,13.63
2018-04-24T18:51:38.353Z,12.43
2018-04-24T18:54:04.700Z,16.93
2018-04-24T18:56:31.111Z,11.40
2018-04-24T18:58:57.595Z,14.23
2018-04-24T19:01:24.474Z,14.23
2018-04-24T19:03:50.632Z,14.20
2018-04-24T19:06:16.908Z,12.07
2018-04-24T19:08:43.173Z,17.10
2018-04-24T19:11:09.750Z,15.33
2018-04-24T19:13:36.029Z,13.53
2018-04-24T19:16:02.162Z,14.07
2018-04-24T19:18:34.354Z,16.03
2018-04-24T19:21:00.716Z,13.47
2018-04-24T19:23:27.021Z,15.73
2018-04-24T19:25:53.356Z,14.60
2018-04-24T19:28:19.669Z,14.00
2018-04-24T19:30:46.011Z,13.70
2018-04-24T19:33:12.432Z,12.23
2018-04-24T19:35:38.731Z,12.90
2018-04-24T19:38:05.071Z,13.17
2018-04-24T19:40:37.612Z,13.07
2018-04-24T19:43:04.098Z,17.27
2018-04-24T19:45:31.171Z,17.70
2018-04-24T19:47:57.584Z,14.57
2018-04-24T19:50:24.991Z,16.27
2018-04-24T19:52:51.343Z,12.87
2018-04-24T19:55:23.744Z,14.07
2018-04-24T19:57:50.352Z,14.10
2018-04-24T20:00:17.538Z,16.07
2018-04-24T20:02:43.849Z,15.70
2018-04-24T20:05:10.166Z,13.77
2018-04-24T20:07:36.483Z,13.40
2018-04-24T20:10:04.306Z,15.00
2018-04-24T20:12:30.747Z,15.83
2018-04-24T20:14:57.083Z,16.50
2018-04-24T20:17:33.164Z,12.57
2018-04-24T20:19:59.280Z,13.50
2018-04-24T20:22:25.402Z,16.40
2018-04-24T20:24:51.616Z,12.30
2018-04-24T20:27:18.853Z,12.80
2018-04-24T20:29:45.801Z,17.57
2018-04-24T20:32:12.101Z,13.70
2018-04-24T20:34:38.275Z,19.43
2018-04-24T20:37:04.618Z,14.80
2018-04-24T20:39:31.053Z,14.03
2018-04-24T20:41:57.368Z,15.50
2018-04-24T20:44:23.686Z,14.73
2018-04-24T20:46:50.231Z,15.37
2018-04-24T20:49:16.556Z,14.50
2018-04-24T20:51:42.866Z,16.47
2018-04-24T20:54:08.992Z,13.93
2018-04-24T20:56:35.316Z,15.67
2018-04-24T20:59:02.391Z,16.30
2018-04-24T21:01:28.519Z,13.87
2018-04-24T21:03:55.381Z,13.60
2018-04-24T21:06:21.591Z,17.60
2018-04-24T21:08:47.859Z,14.93
2018-04-24T21:11:14.195Z,16.00
2018-04-24T21:13:41.253Z,18.33
2018-04-24T21:16:08.327Z,16.23
2018-04-24T21:18:34.656Z,16.40
2018-04-24T21:21:01.698Z,17.33
2018-04-24T21:23:27.924Z,14.23
2018-04-24T21:25:54.174Z,15.47
2018-04-24T21:28:20.303Z,15.30
2018-04-24T21:30:46.428Z,17.50
2018-04-24T21:33:12.548Z,15.63
2018-04-24T21:35:38.715Z,16.10
2018-04-24T21:38:05.081Z,19.00
2018-04-24T21:40:31.431Z,16.97
2018-04-24T21:42:58.562Z,15.87
2018-04-24T21:45:24.716Z,19.90
2018-04-24T21:47:50.836Z,18.30
2018-04-24T21:50:17.190Z,16.87
2018-04-24T21:52:44.921Z,16.87
2018-04-24T21:55:11.227Z,15.30
2018-04-24T21:57:37.551Z,17.07
2018-04-24T22:00:03.897Z,19.60
2018-04-24T22:02:30.339Z,15.50
2018-04-24T22:04:56.692Z,14.90
2018-04-24T22:07:23.228Z,17.37
2018-04-24T22:09:49.724Z,15.43
2018-04-24T22:12:16.137Z,19.50
2018-04-24T22:14:42.588Z,17.70
2018-04-24T22:17:09.652Z,16.63
2018-04-24T22:19:36.801Z,18.20
2018-04-24T22:22:02.902Z,18.60
2018-04-24T22:24:29.946Z,18.60
2018-04-24T22:26:56.040Z,15.27
2018-04-24T22:29:22.291Z,20.37
2018-04-24T22:31:48.614Z,16.53
2018-04-24T22:34:16.060Z,15.90
2018-04-24T22:36:42.383Z,23.77
2018-04-24T22:39:08.722Z,19.23
2018-04-24T22:41:35.079Z,16.90
2018-04-24T22:44:02.539Z,16.80
2018-04-24T22:46:28.865Z,19.70
2018-04-24T22:48:55.218Z,16.30
2018-04-24T22:51:21.544Z,16.50
2018-04-24T22:53:48.586Z,17.80
2018-04-24T22:56:15.447Z,15.47
2018-04-24T22:58:41.550Z,15.27
2018-04-24T23:01:07.687Z,19.63
2018-04-24T23:03:33.814Z,16.30
2018-04-24T23:06:00.140Z,16.90
2018-04-24T23:08:27.182Z,15.33
2018-04-24T23:11:06.471Z,17.90
2018-04-24T23:13:44.995Z,16.20
2018-04-24T23:16:23.635Z,16.80
2018-04-24T23:19:02.111Z,16.60
2018-04-24T23:21:30.099Z,15.60
2018-04-24T23:23:56.222Z,16.33
2018-04-24T23:26:22.335Z,15.07
2018-04-24T23:28:48.475Z,16.33
2018-04-24T23:31:14.828Z,18.67
2018-04-24T23:33:41.158Z,14.73
2018-04-24T23:36:07.446Z,16.87
2018-04-24T23:38:34.535Z,16.40
2018-04-24T23:41:00.866Z,14.23
2018-04-24T23:43:28.035Z,12.90
2018-04-24T23:45:54.371Z,20.10
2018-04-24T23:48:21.467Z,13.80
2018-04-24T23:50:47.792Z,16.23
2018-04-24T23:53:14.899Z,14.87
2018-04-24T23:55:41.203Z,14.07
2018-04-24T23:58:08.264Z,12.40
